createdAt,value
2018-08-17T00:00:11.837Z,81.37
2018-08-17T00:01:12.013Z,81.32
2018-08-17T00:02:12.198Z,81.13
2018-08-17T00:03:12.388Z,81.42
2018-08-17T00:04:12.553Z,81.32
2018-08-17T00:05:12.724Z,81.42
2018-08-17T00:06:12.903Z,81.23
2018-08-17T00:07:13.082Z,81.81
2018-08-17T00:08:13.261Z,81.71
2018-08-17T00:09:13.437Z,81.71
2018-08-17T00:10:13.614Z,81.42
2018-08-17T00:11:13.785Z,81.90
2018-08-17T00:12:13.962Z,82.09
2018-08-17T00:13:14.135Z,82.09
2018-08-17T00:14:14.319Z,82.86
2018-08-17T00:15:14.493Z,82.19
2018-08-17T00:16:14.668Z,82.09
2018-08-17T00:17:14.842Z,82.67
2018-08-17T00:18:15.017Z,82.67
2018-08-17T00:19:15.191Z,82.76
2018-08-17T00:20:15.362Z,83.15
2018-08-17T00:21:15.541Z,82.48
2018-08-17T00:22:15.724Z,82.76
2018-08-17T00:23:15.912Z,82.76
2018-08-17T00:24:16.092Z,82.29
2018-08-17T00:25:16.275Z,82.67
2018-08-17T00:26:16.459Z,82.67
2018-08-17T00:27:16.638Z,82.29
2018-08-17T00:28:16.833Z,82.05
2018-08-17T00:29:17.003Z,82.19
2018-08-17T00:30:17.174Z,82.38
2018-08-17T00:31:17.345Z,82.24
2018-08-17T00:32:17.522Z,82.63
2018-08-17T00:33:17.699Z,82.53
2018-08-17T00:34:17.876Z,82.53
2018-08-17T00:35:18.052Z,82.73
2018-08-17T00:36:18.232Z,83.40
2018-08-17T00:37:18.494Z,83.01
2018-08-17T00:38:18.553Z,83.30
2018-08-17T00:39:18.767Z,83.59
2018-08-17T00:40:18.925Z,83.49
2018-08-17T00:41:19.097Z,83.59
2018-08-17T00:42:19.272Z,83.40
2018-08-17T00:43:19.446Z,83.40
2018-08-17T00:44:19.618Z,83.49
2018-08-17T00:45:19.796Z,82.63
2018-08-17T00:46:19.975Z,83.01
2018-08-17T00:47:20.144Z,83.49
2018-08-17T00:48:20.329Z,83.36
2018-08-17T00:49:20.505Z,83.36
2018-08-17T00:50:20.682Z,84.31
2018-08-17T00:51:20.859Z,84.03
2018-08-17T00:52:21.037Z,84.80
2018-08-17T00:53:21.231Z,84.70
2018-08-17T00:54:21.410Z,84.89
2018-08-17T00:55:21.581Z,84.89
2018-08-17T00:56:21.758Z,84.41
2018-08-17T00:57:21.944Z,84.60
2018-08-17T00:58:22.122Z,84.03
2018-08-17T00:59:22.292Z,84.12
2018-08-17T01:00:22.471Z,83.93
2018-08-17T01:01:22.643Z,84.80
2018-08-17T01:02:22.825Z,84.31
2018-08-17T01:03:23.001Z,84.03
2018-08-17T01:04:23.180Z,84.12
2018-08-17T01:05:23.358Z,83.93
2018-08-17T01:06:23.532Z,84.31
2018-08-17T01:07:23.714Z,84.31
2018-08-17T01:08:23.897Z,84.70
2018-08-17T01:09:24.076Z,84.70
2018-08-17T01:10:24.248Z,84.60
2018-08-17T01:11:24.424Z,84.60
2018-08-17T01:12:24.597Z,84.80
2018-08-17T01:13:24.773Z,84.70
2018-08-17T01:14:24.942Z,84.89
2018-08-17T01:15:25.123Z,85.08
2018-08-17T01:16:25.296Z,85.08
2018-08-17T01:17:25.475Z,84.60
2018-08-17T01:18:25.662Z,84.80
2018-08-17T01:19:25.827Z,85.47
2018-08-17T01:20:25.998Z,85.47
2018-08-17T01:21:26.178Z,85.85
2018-08-17T01:22:26.351Z,85.52
2018-08-17T01:23:26.536Z,86.05
2018-08-17T01:24:26.711Z,85.85
2018-08-17T01:25:26.884Z,85.75
2018-08-17T01:26:27.058Z,85.08
2018-08-17T01:27:27.237Z,85.28
2018-08-17T01:28:27.517Z,85.28
2018-08-17T01:29:27.701Z,85.57
2018-08-17T01:30:27.757Z,85.47
2018-08-17T01:31:27.940Z,85.47
2018-08-17T01:32:28.111Z,84.99
2018-08-17T01:33:28.744Z,84.99
2018-08-17T01:34:28.433Z,85.28
2018-08-17T01:35:28.621Z,85.47
2018-08-17T01:36:28.863Z,85.47
2018-08-17T01:37:28.923Z,85.37
2018-08-17T01:38:29.097Z,85.28
2018-08-17T01:39:29.280Z,85.81
2018-08-17T01:40:29.461Z,85.71
2018-08-17T01:41:29.634Z,86.10
2018-08-17T01:42:29.814Z,85.71
2018-08-17T01:43:30.000Z,86.10
2018-08-17T01:44:30.172Z,86.00
2018-08-17T01:45:30.342Z,86.38
2018-08-17T01:46:30.520Z,86.19
2018-08-17T01:47:30.706Z,87.05
2018-08-17T01:48:30.881Z,86.68
2018-08-17T01:49:31.061Z,86.68
2018-08-17T01:50:31.242Z,86.87
2018-08-17T01:51:31.417Z,87.54
2018-08-17T01:52:31.596Z,87.92
2018-08-17T01:53:32.188Z,87.40
2018-08-17T01:54:32.350Z,87.92
2018-08-17T01:55:32.577Z,88.11
2018-08-17T01:56:32.847Z,87.44
2018-08-17T01:57:32.832Z,86.96
2018-08-17T01:58:33.114Z,87.25
2018-08-17T01:59:33.279Z,87.35
2018-08-17T02:00:33.068Z,87.35
2018-08-17T02:01:33.668Z,87.25
2018-08-17T02:02:33.842Z,87.44
2018-08-17T02:03:33.879Z,87.88
2018-08-17T02:04:34.104Z,88.55
2018-08-17T02:05:34.363Z,88.21
2018-08-17T02:06:34.446Z,87.73
2018-08-17T02:07:34.633Z,87.82
2018-08-17T02:08:34.932Z,87.82
2018-08-17T02:09:35.018Z,87.59
2018-08-17T02:10:35.161Z,87.49
2018-08-17T02:11:35.303Z,87.78
2018-08-17T02:12:35.408Z,87.78
2018-08-17T02:13:35.222Z,87.88
2018-08-17T02:14:35.688Z,88.35
2018-08-17T02:15:35.928Z,87.78
2018-08-17T02:16:35.640Z,87.78
2018-08-17T02:17:35.759Z,88.07
2018-08-17T02:18:36.195Z,88.07
2018-08-17T02:19:36.547Z,88.17
2018-08-17T02:20:36.548Z,87.78
2018-08-17T02:21:36.360Z,88.26
2018-08-17T02:22:36.555Z,88.93
2018-08-17T02:23:36.777Z,89.03
2018-08-17T02:24:36.939Z,88.35
2018-08-17T02:25:37.154Z,89.12
2018-08-17T02:26:37.788Z,88.45
2018-08-17T02:27:38.048Z,88.35
2018-08-17T02:28:38.155Z,88.55
2018-08-17T02:29:38.300Z,88.26
2018-08-17T02:30:38.455Z,88.35
2018-08-17T02:31:38.078Z,88.55
2018-08-17T02:32:38.259Z,88.74
2018-08-17T02:33:38.431Z,88.65
2018-08-17T02:34:38.806Z,88.93
2018-08-17T02:35:38.784Z,88.84
2018-08-17T02:36:39.162Z,88.74
2018-08-17T02:37:39.267Z,88.35
2018-08-17T02:38:39.387Z,88.84
2018-08-17T02:39:39.568Z,88.74
2018-08-17T02:40:39.738Z,88.45
2018-08-17T02:41:39.923Z,88.74
2018-08-17T02:42:40.100Z,88.84
2018-08-17T02:43:40.272Z,88.35
2018-08-17T02:44:40.447Z,88.74
2018-08-17T02:45:40.857Z,88.55
2018-08-17T02:46:40.994Z,88.84
2018-08-17T02:47:42.979Z,88.74
2018-08-17T02:48:41.025Z,88.55
2018-08-17T02:49:41.428Z,88.26
2018-08-17T02:50:41.711Z,88.45
2018-08-17T02:51:41.793Z,89.03
2018-08-17T02:52:41.775Z,88.93
2018-08-17T02:53:41.988Z,88.93
2018-08-17T02:54:42.141Z,89.03
2018-08-17T02:55:42.317Z,88.74
2018-08-17T02:56:42.501Z,88.26
2018-08-17T02:57:42.669Z,89.03
2018-08-17T02:58:42.844Z,88.84
2018-08-17T02:59:43.091Z,88.65
2018-08-17T03:00:43.196Z,88.93
2018-08-17T03:01:43.371Z,89.03
2018-08-17T03:02:43.541Z,88.84
2018-08-17T03:03:43.718Z,89.03
2018-08-17T03:04:43.896Z,88.93
2018-08-17T03:05:44.070Z,88.93
2018-08-17T03:06:44.256Z,89.22
2018-08-17T03:07:44.419Z,88.84
2018-08-17T03:08:44.604Z,88.84
2018-08-17T03:09:44.780Z,88.84
2018-08-17T03:10:44.951Z,88.84
2018-08-17T03:11:45.132Z,88.84
2018-08-17T03:12:45.309Z,88.93
2018-08-17T03:13:45.484Z,88.79
2018-08-17T03:14:45.664Z,88.93
2018-08-17T03:15:45.843Z,88.84
2018-08-17T03:16:46.021Z,88.35
2018-08-17T03:17:46.194Z,88.65
2018-08-17T03:18:46.365Z,89.03
2018-08-17T03:19:46.536Z,88.60
2018-08-17T03:20:46.724Z,88.22
2018-08-17T03:21:46.896Z,88.79
2018-08-17T03:22:47.069Z,89.18
2018-08-17T03:23:47.243Z,88.98
2018-08-17T03:24:47.415Z,89.37
2018-08-17T03:25:47.585Z,89.08
2018-08-17T03:26:47.761Z,88.98
2018-08-17T03:27:47.933Z,89.47
2018-08-17T03:28:48.106Z,88.98
2018-08-17T03:29:48.281Z,89.37
2018-08-17T03:30:48.460Z,89.56
2018-08-17T03:31:48.642Z,89.27
2018-08-17T03:32:48.813Z,89.37
2018-08-17T03:33:48.982Z,89.75
2018-08-17T03:34:49.162Z,89.65
2018-08-17T03:35:49.332Z,89.85
2018-08-17T03:36:49.515Z,90.09
2018-08-17T03:37:49.691Z,90.67
2018-08-17T03:38:49.866Z,90.42
2018-08-17T03:39:50.042Z,90.52
2018-08-17T03:40:50.212Z,90.52
2018-08-17T03:41:50.388Z,90.33
2018-08-17T03:42:50.563Z,90.71
2018-08-17T03:43:50.738Z,90.42
2018-08-17T03:44:50.917Z,90.86
2018-08-17T03:45:51.095Z,90.61
2018-08-17T03:46:51.270Z,90.33
2018-08-17T03:47:51.441Z,90.67
2018-08-17T03:48:51.623Z,90.81
2018-08-17T03:49:54.257Z,90.71
2018-08-17T03:50:55.913Z,90.61
2018-08-17T03:51:56.759Z,90.61
2018-08-17T03:52:55.390Z,90.90
2018-08-17T03:53:54.997Z,90.52
2018-08-17T03:54:57.385Z,90.71
2018-08-17T03:55:57.828Z,90.61
2018-08-17T03:56:55.082Z,90.14
2018-08-17T03:57:56.480Z,90.04
2018-08-17T03:58:57.703Z,90.04
2018-08-17T03:59:58.103Z,89.65
2018-08-17T04:00:55.339Z,89.75
2018-08-17T04:01:57.271Z,90.28
2018-08-17T04:02:58.658Z,89.85
2018-08-17T04:03:54.287Z,90.61
2018-08-17T04:04:58.000Z,90.71
2018-08-17T04:05:57.956Z,90.47
2018-08-17T04:06:57.043Z,91.19
2018-08-17T04:07:58.633Z,91.14
2018-08-17T04:09:00.302Z,91.14
2018-08-17T04:09:58.527Z,91.24
2018-08-17T04:10:59.904Z,91.53
2018-08-17T04:11:58.967Z,90.86
2018-08-17T04:13:00.537Z,90.95
2018-08-17T04:13:55.709Z,91.53
2018-08-17T04:14:55.640Z,91.34
2018-08-17T04:15:56.495Z,91.05
2018-08-17T04:16:55.951Z,91.38
2018-08-17T04:17:56.154Z,91.14
2018-08-17T04:18:56.299Z,90.81
2018-08-17T04:19:56.470Z,90.61
2018-08-17T04:20:57.232Z,90.90
2018-08-17T04:21:57.362Z,90.52
2018-08-17T04:22:57.263Z,90.71
2018-08-17T04:23:57.753Z,90.23
2018-08-17T04:24:58.394Z,90.33
2018-08-17T04:25:57.707Z,90.33
2018-08-17T04:26:58.954Z,90.71
2018-08-17T04:27:57.834Z,90.71
2018-08-17T04:28:57.974Z,90.61
2018-08-17T04:29:58.056Z,90.52
2018-08-17T04:30:58.222Z,90.86
2018-08-17T04:31:58.741Z,90.42
2018-08-17T04:32:58.588Z,90.61
2018-08-17T04:34:00.542Z,90.67
2018-08-17T04:34:58.940Z,90.81
2018-08-17T04:35:59.123Z,90.61
2018-08-17T04:36:59.302Z,90.71
2018-08-17T04:37:59.481Z,90.52
2018-08-17T04:38:59.654Z,90.42
2018-08-17T04:39:59.834Z,90.42
2018-08-17T04:41:00.039Z,89.85
2018-08-17T04:42:00.203Z,90.42
2018-08-17T04:43:00.415Z,90.67
2018-08-17T04:44:00.605Z,90.71
2018-08-17T04:45:00.799Z,90.33
2018-08-17T04:46:00.974Z,90.23
2018-08-17T04:47:01.153Z,89.85
2018-08-17T04:48:01.334Z,90.04
2018-08-17T04:49:01.518Z,90.04
2018-08-17T04:50:01.694Z,89.75
2018-08-17T04:51:01.872Z,89.85
2018-08-17T04:52:02.051Z,89.65
2018-08-17T04:53:02.226Z,89.65
2018-08-17T04:54:02.407Z,89.27
2018-08-17T04:55:02.580Z,89.47
2018-08-17T04:56:02.757Z,89.27
2018-08-17T04:57:02.933Z,89.56
2018-08-17T04:58:03.112Z,89.27
2018-08-17T04:59:03.287Z,89.85
2018-08-17T05:00:03.546Z,89.65
2018-08-17T05:01:03.603Z,89.37
2018-08-17T05:02:03.785Z,89.56
2018-08-17T05:03:03.967Z,88.98
2018-08-17T05:04:04.148Z,88.89
2018-08-17T05:05:04.529Z,88.79
2018-08-17T05:06:04.464Z,88.79
2018-08-17T05:07:04.631Z,88.98
2018-08-17T05:08:04.808Z,88.89
2018-08-17T05:09:04.997Z,88.79
2018-08-17T05:10:05.160Z,88.74
2018-08-17T05:11:05.342Z,88.93
2018-08-17T05:12:05.566Z,88.93
2018-08-17T05:13:05.626Z,88.45
2018-08-17T05:14:05.802Z,88.55
2018-08-17T05:15:05.981Z,88.17
2018-08-17T05:16:06.164Z,88.07
2018-08-17T05:17:06.329Z,88.26
2018-08-17T05:18:06.511Z,87.98
2018-08-17T05:19:06.792Z,88.26
2018-08-17T05:20:06.835Z,87.78
2018-08-17T05:21:07.011Z,87.68
2018-08-17T05:22:07.194Z,87.25
2018-08-17T05:23:07.371Z,87.78
2018-08-17T05:24:07.545Z,88.02
2018-08-17T05:25:07.724Z,88.11
2018-08-17T05:26:07.909Z,87.54
2018-08-17T05:27:08.106Z,87.15
2018-08-17T05:28:08.265Z,86.96
2018-08-17T05:29:08.536Z,87.25
2018-08-17T05:30:08.588Z,87.25
2018-08-17T05:31:08.767Z,87.44
2018-08-17T05:32:08.940Z,87.05
2018-08-17T05:33:09.117Z,87.25
2018-08-17T05:34:09.293Z,87.05
2018-08-17T05:35:09.457Z,87.25
2018-08-17T05:36:09.637Z,87.25
2018-08-17T05:37:09.816Z,88.02
2018-08-17T05:38:09.991Z,87.44
2018-08-17T05:39:10.172Z,87.44
2018-08-17T05:40:10.369Z,87.54
2018-08-17T05:41:10.548Z,87.25
2018-08-17T05:42:10.728Z,87.25
2018-08-17T05:43:10.897Z,86.87
2018-08-17T05:44:11.078Z,86.96
2018-08-17T05:45:11.312Z,86.38
2018-08-17T05:46:11.424Z,86.77
2018-08-17T05:47:11.685Z,86.96
2018-08-17T05:48:11.733Z,86.96
2018-08-17T05:49:11.913Z,87.25
2018-08-17T05:50:12.091Z,86.77
2018-08-17T05:51:12.267Z,86.43
2018-08-17T05:52:12.440Z,86.81
2018-08-17T05:53:12.638Z,86.91
2018-08-17T05:54:12.804Z,87.01
2018-08-17T05:55:12.965Z,86.43
2018-08-17T05:56:13.142Z,86.14
2018-08-17T05:57:13.315Z,85.08
2018-08-17T05:58:13.489Z,85.13
2018-08-17T05:59:13.662Z,84.94
2018-08-17T06:00:15.368Z,84.36
2018-08-17T06:01:18.878Z,83.78
2018-08-17T06:02:14.097Z,83.83
2018-08-17T06:03:15.249Z,84.11
2018-08-17T06:04:14.403Z,83.63
2018-08-17T06:05:14.581Z,83.06
2018-08-17T06:06:14.762Z,83.34
2018-08-17T06:07:14.935Z,82.57
2018-08-17T06:08:15.129Z,82.48
2018-08-17T06:09:15.296Z,81.90
2018-08-17T06:10:15.471Z,81.84
2018-08-17T06:11:15.755Z,81.84
2018-08-17T06:12:15.819Z,81.02
2018-08-17T06:13:16.004Z,80.35
2018-08-17T06:14:16.177Z,79.77
2018-08-17T06:15:16.364Z,79.77
2018-08-17T06:16:16.546Z,79.77
2018-08-17T06:17:16.773Z,79.28
2018-08-17T06:18:16.835Z,78.17
2018-08-17T06:19:17.083Z,78.46
2018-08-17T06:20:17.189Z,77.88
2018-08-17T06:21:17.362Z,77.59
2018-08-17T06:22:17.537Z,77.15
2018-08-17T06:23:17.709Z,76.86
2018-08-17T06:24:17.886Z,75.90
2018-08-17T06:25:18.063Z,76.03
2018-08-17T06:26:18.238Z,75.84
2018-08-17T06:27:18.419Z,75.26
2018-08-17T06:28:18.600Z,75.26
2018-08-17T06:29:18.786Z,75.20
2018-08-17T06:30:18.964Z,74.82
2018-08-17T06:31:19.163Z,74.91
2018-08-17T06:32:19.351Z,74.72
2018-08-17T06:33:19.563Z,73.85
2018-08-17T06:34:19.724Z,73.95
2018-08-17T06:35:19.914Z,73.57
2018-08-17T06:36:20.122Z,73.11
2018-08-17T06:37:20.382Z,72.83
2018-08-17T06:38:20.480Z,72.58
2018-08-17T06:39:20.659Z,72.19
2018-08-17T06:40:20.842Z,71.90
2018-08-17T06:41:21.020Z,71.32
2018-08-17T06:42:21.205Z,71.03
2018-08-17T06:43:21.409Z,70.16
2018-08-17T06:44:21.579Z,70.16
2018-08-17T06:45:21.760Z,69.52
2018-08-17T06:46:21.937Z,69.04
2018-08-17T06:47:22.125Z,68.40
2018-08-17T06:48:22.405Z,68.01
2018-08-17T06:49:22.545Z,68.68
2018-08-17T06:50:22.720Z,68.30
2018-08-17T06:51:22.899Z,68.01
2018-08-17T06:52:23.102Z,67.91
2018-08-17T06:53:23.265Z,67.82
2018-08-17T06:54:23.454Z,67.52
2018-08-17T06:55:23.639Z,68.01
2018-08-17T06:56:23.843Z,67.62
2018-08-17T06:57:24.070Z,67.24
2018-08-17T06:58:25.028Z,66.85
2018-08-17T06:59:24.373Z,67.04
2018-08-17T07:00:24.589Z,66.88
2018-08-17T07:01:25.427Z,66.69
2018-08-17T07:02:24.952Z,66.30
2018-08-17T07:03:25.144Z,66.14
2018-08-17T07:04:25.324Z,64.98
2018-08-17T07:05:25.499Z,65.47
2018-08-17T07:06:25.684Z,65.37
2018-08-17T07:07:25.879Z,65.30
2018-08-17T07:08:26.067Z,64.92
2018-08-17T07:09:26.413Z,64.04
2018-08-17T07:10:26.450Z,63.69
2018-08-17T07:11:26.630Z,63.82
2018-08-17T07:12:26.806Z,62.59
2018-08-17T07:13:26.987Z,60.97
2018-08-17T07:14:27.196Z,59.84
2018-08-17T07:15:27.361Z,58.31
2018-08-17T07:16:27.586Z,57.64
2018-08-17T07:17:27.765Z,57.73
2018-08-17T07:18:27.948Z,57.83
2018-08-17T07:19:28.135Z,56.98
2018-08-17T07:20:28.325Z,56.14
2018-08-17T07:21:28.565Z,55.19
2018-08-17T07:22:28.706Z,54.05
2018-08-17T07:23:28.891Z,54.05
2018-08-17T07:24:29.085Z,53.86
2018-08-17T07:25:29.304Z,53.79
2018-08-17T07:26:29.469Z,53.79
2018-08-17T07:27:29.662Z,53.83
2018-08-17T07:28:30.014Z,54.71
2018-08-17T07:29:30.013Z,54.03
2018-08-17T07:30:30.195Z,54.74
2018-08-17T07:31:30.396Z,54.28
2018-08-17T07:32:30.572Z,54.38
2018-08-17T07:33:30.763Z,53.79
2018-08-17T07:34:30.969Z,53.86
2018-08-17T07:35:31.182Z,54.61
2018-08-17T07:36:31.360Z,55.36
2018-08-17T07:37:31.531Z,56.14
2018-08-17T07:38:31.725Z,56.43
2018-08-17T07:39:31.908Z,56.70
2018-08-17T07:40:32.099Z,56.96
2018-08-17T07:41:32.328Z,56.76
2018-08-17T07:42:32.481Z,57.54
2018-08-17T07:43:32.654Z,57.73
2018-08-17T07:44:32.847Z,58.41
2018-08-17T07:45:33.036Z,58.00
2018-08-17T07:46:33.355Z,58.48
2018-08-17T07:47:33.401Z,58.77
2018-08-17T07:48:33.586Z,58.51
2018-08-17T07:49:33.764Z,56.89
2018-08-17T07:50:33.993Z,56.26
2018-08-17T07:51:34.169Z,53.67
2018-08-17T07:52:34.397Z,53.69
2018-08-17T07:53:34.529Z,52.48
2018-08-17T07:54:34.715Z,50.65
2018-08-17T07:55:34.908Z,49.80
2018-08-17T07:56:35.091Z,49.27
2018-08-17T07:57:35.299Z,48.19
2018-08-17T07:58:35.542Z,48.49
2018-08-17T07:59:35.601Z,49.02
2018-08-17T08:00:35.784Z,50.56
2018-08-17T08:01:35.969Z,51.21
2018-08-17T08:02:36.156Z,51.77
2018-08-17T08:03:36.335Z,52.43
2018-08-17T08:04:36.520Z,53.08
2018-08-17T08:05:36.713Z,53.77
2018-08-17T08:06:37.057Z,53.79
2018-08-17T08:07:37.142Z,52.75
2018-08-17T08:08:37.186Z,52.36
2018-08-17T08:09:37.641Z,51.90
2018-08-17T08:10:37.830Z,50.56
2018-08-17T08:11:37.897Z,50.29
2018-08-17T08:12:37.914Z,49.63
2018-08-17T08:13:38.587Z,49.32
2018-08-17T08:14:38.421Z,49.88
2018-08-17T08:15:38.543Z,50.56
2018-08-17T08:16:38.621Z,50.87
2018-08-17T08:17:38.832Z,50.19
2018-08-17T08:18:39.090Z,50.29
2018-08-17T08:19:39.227Z,50.56
2018-08-17T08:20:39.419Z,50.82
2018-08-17T08:21:39.624Z,50.58
2018-08-17T08:22:39.839Z,49.51
2018-08-17T08:23:40.030Z,50.56
2018-08-17T08:24:40.188Z,50.36
2018-08-17T08:25:40.500Z,51.04
2018-08-17T08:26:40.574Z,51.24
2018-08-17T08:27:40.872Z,50.85
2018-08-17T08:28:40.924Z,51.14
2018-08-17T08:29:41.161Z,50.75
2018-08-17T08:30:41.319Z,48.88
2018-08-17T08:31:41.545Z,48.12
2018-08-17T08:32:41.742Z,47.56
2018-08-17T08:33:41.931Z,46.04
2018-08-17T08:34:42.117Z,46.31
2018-08-17T08:35:42.304Z,45.92
2018-08-17T08:36:42.488Z,46.11
2018-08-17T08:37:42.669Z,46.60
2018-08-17T08:38:42.850Z,47.27
2018-08-17T08:39:43.049Z,47.83
2018-08-17T08:40:43.225Z,48.68
2018-08-17T08:41:43.434Z,48.58
2018-08-17T08:42:43.621Z,48.61
2018-08-17T08:43:43.796Z,48.14
2018-08-17T08:44:43.977Z,47.95
2018-08-17T08:45:44.227Z,46.33
2018-08-17T08:46:48.887Z,44.71
2018-08-17T08:47:44.962Z,44.83
2018-08-17T08:48:44.741Z,44.09
2018-08-17T08:49:46.638Z,44.37
2018-08-17T08:50:45.048Z,43.48
2018-08-17T08:51:45.247Z,43.12
2018-08-17T08:52:47.184Z,42.91
2018-08-17T08:53:45.674Z,43.41
2018-08-17T08:54:45.915Z,43.09
2018-08-17T08:55:46.448Z,43.09
2018-08-17T08:56:46.188Z,42.70
2018-08-17T08:57:46.371Z,41.86
2018-08-17T08:58:46.558Z,40.80
2018-08-17T08:59:46.744Z,40.61
2018-08-17T09:00:46.937Z,40.23
2018-08-17T09:01:47.159Z,39.35
2018-08-17T09:02:47.313Z,39.72
2018-08-17T09:03:47.520Z,39.25
2018-08-17T09:04:47.733Z,38.85
2018-08-17T09:05:47.924Z,39.25
2018-08-17T09:06:48.125Z,39.35
2018-08-17T09:07:48.300Z,38.85
2018-08-17T09:08:48.509Z,38.96
2018-08-17T09:09:48.732Z,39.23
2018-08-17T09:10:48.908Z,39.48
2018-08-17T09:11:49.114Z,38.98
2018-08-17T09:12:49.303Z,38.39
2018-08-17T09:13:49.555Z,40.01
2018-08-17T09:14:49.711Z,39.82
2018-08-17T09:15:49.888Z,39.07
2018-08-17T09:16:50.083Z,39.06
2018-08-17T09:17:50.409Z,38.85
2018-08-17T09:18:50.467Z,39.07
2018-08-17T09:19:50.648Z,38.96
2018-08-17T09:20:52.341Z,40.11
2018-08-17T09:21:51.012Z,40.39
2018-08-17T09:22:51.213Z,41.84
2018-08-17T09:23:51.403Z,41.37
2018-08-17T09:24:51.591Z,40.31
2018-08-17T09:25:51.800Z,39.06
2018-08-17T09:26:52.090Z,39.37
2018-08-17T09:27:54.643Z,39.54
2018-08-17T09:28:53.481Z,39.25
2018-08-17T09:29:52.656Z,39.37
2018-08-17T09:30:52.741Z,38.80
2018-08-17T09:31:55.056Z,38.42
2018-08-17T09:32:55.979Z,38.15
2018-08-17T09:33:55.886Z,37.62
2018-08-17T09:34:54.154Z,37.26
2018-08-17T09:35:53.700Z,36.20
2018-08-17T09:36:55.573Z,36.71
2018-08-17T09:37:56.438Z,36.11
2018-08-17T09:38:56.941Z,35.21
2018-08-17T09:39:54.488Z,36.02
2018-08-17T09:40:54.907Z,36.32
2018-08-17T09:41:54.754Z,35.35
2018-08-17T09:42:55.123Z,36.04
2018-08-17T09:43:55.813Z,35.27
2018-08-17T09:44:58.266Z,35.00
2018-08-17T09:45:57.433Z,34.53
2018-08-17T09:46:59.444Z,33.04
2018-08-17T09:47:55.815Z,31.99
2018-08-17T09:48:56.109Z,32.10
2018-08-17T09:50:01.269Z,31.63
2018-08-17T09:50:58.940Z,30.94
2018-08-17T09:51:58.056Z,30.46
2018-08-17T09:52:56.759Z,30.95
2018-08-17T09:53:57.766Z,30.97
2018-08-17T09:54:57.355Z,30.36
2018-08-17T09:55:57.529Z,30.41
2018-08-17T09:56:57.752Z,31.30
2018-08-17T09:57:57.549Z,31.02
2018-08-17T09:58:57.880Z,30.94
2018-08-17T09:59:57.950Z,30.64
2018-08-17T10:00:58.142Z,31.04
2018-08-17T10:01:58.541Z,30.94
2018-08-17T10:02:58.590Z,30.64
2018-08-17T10:03:58.925Z,30.85
2018-08-17T10:04:58.832Z,30.36
2018-08-17T10:05:59.022Z,30.92
2018-08-17T10:06:59.209Z,31.04
2018-08-17T10:07:59.407Z,31.13
2018-08-17T10:08:59.980Z,31.13
2018-08-17T10:09:59.901Z,31.22
2018-08-17T10:11:00.467Z,31.13
2018-08-17T10:12:00.344Z,30.92
2018-08-17T10:13:00.736Z,30.85
2018-08-17T10:14:00.961Z,30.65
2018-08-17T10:15:01.466Z,31.32
2018-08-17T10:16:01.373Z,31.60
2018-08-17T10:17:01.436Z,31.71
2018-08-17T10:18:01.590Z,30.74
2018-08-17T10:19:01.424Z,30.65
2018-08-17T10:20:01.840Z,30.08
2018-08-17T10:21:02.380Z,29.95
2018-08-17T10:22:02.486Z,29.83
2018-08-17T10:23:02.447Z,30.63
2018-08-17T10:24:02.388Z,31.62
2018-08-17T10:25:02.825Z,31.30
2018-08-17T10:26:03.031Z,30.91
2018-08-17T10:27:03.499Z,31.40
2018-08-17T10:28:03.227Z,31.60
2018-08-17T10:29:03.409Z,31.51
2018-08-17T10:30:03.530Z,31.29
2018-08-17T10:31:03.737Z,31.30
2018-08-17T10:32:03.850Z,31.40
2018-08-17T10:33:04.095Z,31.02
2018-08-17T10:34:04.343Z,31.04
2018-08-17T10:35:04.388Z,30.74
2018-08-17T10:36:07.682Z,31.25
2018-08-17T10:37:04.759Z,30.97
2018-08-17T10:38:04.947Z,30.67
2018-08-17T10:39:05.165Z,30.29
2018-08-17T10:40:05.302Z,29.99
2018-08-17T10:41:05.443Z,30.64
2018-08-17T10:42:05.569Z,31.48
2018-08-17T10:43:05.772Z,32.54
2018-08-17T10:44:06.072Z,33.28
2018-08-17T10:45:06.185Z,34.46
2018-08-17T10:46:06.301Z,34.77
2018-08-17T10:47:06.613Z,34.00
2018-08-17T10:48:06.936Z,33.53
2018-08-17T10:49:07.059Z,33.54
2018-08-17T10:50:07.121Z,33.65
2018-08-17T10:51:07.266Z,32.95
2018-08-17T10:52:07.394Z,33.16
2018-08-17T10:53:07.540Z,32.70
2018-08-17T10:54:07.623Z,31.33
2018-08-17T10:55:07.841Z,31.36
2018-08-17T10:56:08.047Z,31.07
2018-08-17T10:57:08.252Z,29.81
2018-08-17T10:58:11.685Z,30.12
2018-08-17T10:59:10.017Z,30.13
2018-08-17T11:00:10.641Z,29.75
2018-08-17T11:01:11.935Z,28.77
2018-08-17T11:02:12.156Z,28.66
2018-08-17T11:03:11.524Z,28.64
2018-08-17T11:04:13.833Z,28.83
2018-08-17T11:05:11.523Z,29.14
2018-08-17T11:06:12.983Z,29.74
2018-08-17T11:07:09.913Z,29.94
2018-08-17T11:08:10.096Z,29.75
2018-08-17T11:09:10.286Z,29.75
2018-08-17T11:10:10.476Z,29.07
2018-08-17T11:11:10.709Z,29.37
2018-08-17T11:12:10.884Z,28.69
2018-08-17T11:13:11.089Z,28.69
2018-08-17T11:14:11.293Z,28.49
2018-08-17T11:15:11.481Z,29.27
2018-08-17T11:16:11.669Z,30.07
2018-08-17T11:17:11.861Z,29.19
2018-08-17T11:18:12.047Z,29.19
2018-08-17T11:19:12.244Z,28.69
2018-08-17T11:20:12.435Z,28.69
2018-08-17T11:21:12.621Z,28.59
2018-08-17T11:22:12.827Z,28.59
2018-08-17T11:23:13.021Z,28.70
2018-08-17T11:24:13.217Z,29.10
2018-08-17T11:25:13.404Z,29.08
2018-08-17T11:26:13.659Z,28.79
2018-08-17T11:27:13.733Z,27.81
2018-08-17T11:28:13.928Z,27.80
2018-08-17T11:29:14.131Z,27.91
2018-08-17T11:30:14.314Z,27.31
2018-08-17T11:31:14.553Z,27.71
2018-08-17T11:32:14.633Z,27.91
2018-08-17T11:33:14.841Z,27.31
2018-08-17T11:34:15.196Z,27.89
2018-08-17T11:35:15.243Z,27.80
2018-08-17T11:36:15.443Z,27.89
2018-08-17T11:37:15.728Z,27.80
2018-08-17T11:38:15.800Z,27.28
2018-08-17T11:39:15.994Z,27.48
2018-08-17T11:40:16.398Z,27.59
2018-08-17T11:41:16.359Z,27.99
2018-08-17T11:42:16.531Z,27.88
2018-08-17T11:43:16.762Z,28.17
2018-08-17T11:44:16.988Z,27.97
2018-08-17T11:45:17.162Z,27.77
2018-08-17T11:46:17.345Z,27.68
2018-08-17T11:47:17.754Z,27.77
2018-08-17T11:48:17.767Z,28.08
2018-08-17T11:49:18.157Z,28.18
2018-08-17T11:50:18.296Z,28.66
2018-08-17T11:51:18.576Z,28.76
2018-08-17T11:52:18.672Z,28.64
2018-08-17T11:53:18.812Z,28.94
2018-08-17T11:54:19.003Z,29.63
2018-08-17T11:55:18.974Z,29.61
2018-08-17T11:56:19.247Z,29.91
2018-08-17T11:57:19.441Z,29.60
2018-08-17T11:58:19.529Z,29.48
2018-08-17T11:59:19.872Z,30.26
2018-08-17T12:00:19.833Z,30.64
2018-08-17T12:01:20.037Z,31.13
2018-08-17T12:02:20.957Z,31.20
2018-08-17T12:03:20.375Z,31.59
2018-08-17T12:04:20.571Z,32.28
2018-08-17T12:05:20.769Z,33.25
2018-08-17T12:06:20.973Z,33.84
2018-08-17T12:07:21.148Z,34.59
2018-08-17T12:08:21.439Z,34.97
2018-08-17T12:09:21.532Z,35.86
2018-08-17T12:10:21.741Z,36.04
2018-08-17T12:11:21.991Z,35.54
2018-08-17T12:12:22.065Z,36.22
2018-08-17T12:13:22.247Z,36.90
2018-08-17T12:14:22.433Z,36.59
2018-08-17T12:15:22.630Z,35.88
2018-08-17T12:16:22.806Z,36.18
2018-08-17T12:17:23.007Z,36.65
2018-08-17T12:18:23.196Z,36.24
2018-08-17T12:19:23.477Z,36.93
2018-08-17T12:20:23.551Z,37.50
2018-08-17T12:21:24.021Z,37.60
2018-08-17T12:22:23.904Z,37.99
2018-08-17T12:23:24.093Z,39.25
2018-08-17T12:24:24.443Z,39.06
2018-08-17T12:25:24.397Z,38.85
2018-08-17T12:26:24.713Z,38.85
2018-08-17T12:27:24.786Z,39.54
2018-08-17T12:28:24.987Z,39.82
2018-08-17T12:29:25.197Z,40.31
2018-08-17T12:30:25.398Z,40.51
2018-08-17T12:31:25.584Z,40.41
2018-08-17T12:32:25.801Z,40.70
2018-08-17T12:33:26.020Z,40.31
2018-08-17T12:34:26.227Z,40.21
2018-08-17T12:35:26.530Z,40.78
2018-08-17T12:36:26.864Z,40.39
2018-08-17T12:37:26.731Z,39.70
2018-08-17T12:38:26.791Z,39.80
2018-08-17T12:39:26.984Z,40.66
2018-08-17T12:40:27.177Z,40.76
2018-08-17T12:41:27.414Z,40.56
2018-08-17T12:42:27.597Z,40.86
2018-08-17T12:43:27.839Z,40.56
2018-08-17T12:44:27.935Z,40.56
2018-08-17T12:45:28.130Z,40.47
2018-08-17T12:46:28.541Z,40.27
2018-08-17T12:47:28.679Z,41.35
2018-08-17T12:48:28.918Z,40.37
2018-08-17T12:49:28.855Z,40.17
2018-08-17T12:50:29.064Z,40.16
2018-08-17T12:51:29.243Z,40.16
2018-08-17T12:52:29.542Z,39.76
2018-08-17T12:53:29.648Z,40.06
2018-08-17T12:54:29.846Z,40.55